createdAt,value
2023-02-24T00:05:56.248Z,6.70
2023-02-24T00:08:22.829Z,6.70
2023-02-24T00:10:49.706Z,6.54
2023-02-24T00:13:22.283Z,6.92
2023-02-24T00:16:18.757Z,6.68
2023-02-24T00:18:45.528Z,6.61
2023-02-24T00:21:14.824Z,6.77
2023-02-24T00:23:42.750Z,6.81
2023-02-24T00:26:10.150Z,6.71
2023-02-24T00:28:36.936Z,6.76
2023-02-24T00:31:10.970Z,6.81
2023-02-24T00:33:39.443Z,6.60
2023-02-24T00:36:17.310Z,6.62
2023-02-24T00:38:47.263Z,6.54
2023-02-24T00:41:16.395Z,7.00
2023-02-24T00:43:48.959Z,6.99
2023-02-24T00:46:18.038Z,6.58
2023-02-24T00:48:45.992Z,6.39
2023-02-24T00:51:13.843Z,6.60
2023-02-24T00:53:40.579Z,6.92
2023-02-24T00:56:07.640Z,6.98
2023-02-24T00:58:35.339Z,6.94
2023-02-24T01:01:03.921Z,7.09
2023-02-24T01:03:32.033Z,7.31
2023-02-24T01:06:03.288Z,7.22
2023-02-24T01:08:30.315Z,6.94
2023-02-24T01:11:19.283Z,6.67
2023-02-24T01:13:46.137Z,6.81
2023-02-24T01:16:18.719Z,6.71
2023-02-24T01:18:48.613Z,6.76
2023-02-24T01:21:19.805Z,6.81
2023-02-24T01:23:50.186Z,6.62
2023-02-24T01:26:17.535Z,6.58
2023-02-24T01:28:46.383Z,6.94
2023-02-24T01:31:13.147Z,6.86
2023-02-24T01:33:39.865Z,6.60
2023-02-24T01:36:10.111Z,6.94
2023-02-24T01:38:37.229Z,7.13
2023-02-24T01:41:05.198Z,7.24
2023-02-24T01:43:33.064Z,7.28
2023-02-24T01:46:00.130Z,7.38
2023-02-24T01:48:26.828Z,7.63
2023-02-24T01:50:53.767Z,7.36
2023-02-24T01:53:20.396Z,6.71
2023-02-24T01:55:49.937Z,6.79
2023-02-24T01:58:25.124Z,7.09
2023-02-24T02:00:55.025Z,7.43
2023-02-24T02:03:29.685Z,7.31
2023-02-24T02:10:10.162Z,7.41
2023-02-24T02:12:38.452Z,7.47
2023-02-24T02:15:05.706Z,7.38
2023-02-24T02:17:51.351Z,7.44
2023-02-24T02:20:28.471Z,7.39
2023-02-24T02:23:19.936Z,7.30
2023-02-24T02:26:18.895Z,7.31
2023-02-24T02:29:23.042Z,6.92
2023-02-24T02:32:05.840Z,6.54
2023-02-24T02:34:53.828Z,6.69
2023-02-24T02:37:30.419Z,6.67
2023-02-24T02:40:23.293Z,6.32
2023-02-24T02:42:59.223Z,6.07
2023-02-24T02:45:35.489Z,6.07
2023-02-24T02:48:08.575Z,6.26
2023-02-24T02:50:54.980Z,6.36
2023-02-24T02:53:43.130Z,6.30
2023-02-24T02:56:18.005Z,6.42
2023-02-24T02:58:47.808Z,6.52
2023-02-24T03:01:18.536Z,6.39
2023-02-24T03:03:49.289Z,6.29
2023-02-24T03:06:30.842Z,5.95
2023-02-24T03:08:59.233Z,6.06
2023-02-24T03:11:26.813Z,6.00
2023-02-24T03:13:56.118Z,5.60
2023-02-24T03:16:23.750Z,5.86
2023-02-24T03:18:57.187Z,5.82
2023-02-24T03:21:33.023Z,5.71
2023-02-24T03:24:00.193Z,5.70
2023-02-24T03:30:22.439Z,5.67
2023-02-24T03:32:59.386Z,5.64
2023-02-24T03:35:30.429Z,5.54
2023-02-24T03:37:57.875Z,5.64
2023-02-24T03:40:30.051Z,5.41
2023-02-24T03:42:59.597Z,5.59
2023-02-24T03:45:27.943Z,5.69
2023-02-24T03:47:56.130Z,5.41
2023-02-24T03:50:23.097Z,5.36
2023-02-24T03:53:18.906Z,5.67
2023-02-24T03:56:01.152Z,5.61
2023-02-24T03:58:52.594Z,5.86
2023-02-24T04:01:26.195Z,5.34
2023-02-24T04:04:15.657Z,5.39
2023-02-24T04:06:56.335Z,5.59
2023-02-24T04:09:50.505Z,5.42
2023-02-24T04:12:38.845Z,5.41
2023-02-24T04:15:10.664Z,5.36
2023-02-24T04:17:45.806Z,5.30
2023-02-24T04:20:16.376Z,5.30
2023-02-24T04:22:51.612Z,5.01
2023-02-24T04:25:24.857Z,5.32
2023-02-24T04:27:54.552Z,5.55
2023-02-24T04:30:21.575Z,5.59
2023-02-24T04:32:48.296Z,5.89
2023-02-24T04:35:17.060Z,5.48
2023-02-24T04:37:49.137Z,5.10
2023-02-24T04:40:17.749Z,5.39
2023-02-24T04:42:48.897Z,5.71
2023-02-24T04:45:16.962Z,5.58
2023-02-24T04:47:46.144Z,5.82
2023-02-24T04:50:22.749Z,6.04
2023-02-24T04:56:55.006Z,6.30
2023-02-24T04:59:21.925Z,5.95
2023-02-24T05:01:51.655Z,5.76
2023-02-24T05:04:18.502Z,5.13
2023-02-24T05:06:45.406Z,5.44
2023-02-24T05:09:19.447Z,5.73
2023-02-24T05:11:49.088Z,5.86
2023-02-24T05:14:16.777Z,5.36
2023-02-24T05:16:43.771Z,5.17
2023-02-24T05:19:33.137Z,5.55
2023-02-24T05:21:59.808Z,5.92
2023-02-24T05:24:27.215Z,6.30
2023-02-24T05:26:58.139Z,5.71
2023-02-24T05:29:29.126Z,5.57
2023-02-24T05:31:59.818Z,5.85
2023-02-24T05:34:27.455Z,5.98
2023-02-24T05:36:54.148Z,6.21
2023-02-24T05:39:21.195Z,6.28
2023-02-24T05:41:49.030Z,6.24
2023-02-24T05:44:17.480Z,6.24
2023-02-24T05:46:45.949Z,5.94
2023-02-24T05:49:14.342Z,5.95
2023-02-24T05:51:43.483Z,5.47
2023-02-24T05:54:12.062Z,5.46
2023-02-24T05:56:39.637Z,5.15
2023-02-24T05:59:08.962Z,5.09
2023-02-24T06:01:37.266Z,5.17
2023-02-24T06:04:07.819Z,5.31
2023-02-24T06:06:43.374Z,5.21
2023-02-24T06:09:12.662Z,5.20
2023-02-24T06:11:40.751Z,5.08
2023-02-24T06:14:07.472Z,5.30
2023-02-24T06:16:35.590Z,5.17
2023-02-24T06:19:02.440Z,5.34
2023-02-24T06:21:31.742Z,5.70
2023-02-24T06:23:58.819Z,5.82
2023-02-24T06:26:29.793Z,5.96
2023-02-24T06:28:58.056Z,5.97
2023-02-24T06:31:25.175Z,5.96
2023-02-24T06:33:53.289Z,5.79
2023-02-24T06:36:20.505Z,5.79
2023-02-24T06:38:47.116Z,5.81
2023-02-24T06:41:13.787Z,6.07
2023-02-24T06:43:41.294Z,6.07
2023-02-24T06:46:07.964Z,6.17
2023-02-24T06:48:34.659Z,6.31
2023-02-24T06:51:05.215Z,6.14
2023-02-24T06:53:34.897Z,6.16
2023-02-24T06:56:07.089Z,6.09
2023-02-24T06:58:33.709Z,6.30
2023-02-24T07:01:02.640Z,5.86
2023-02-24T07:03:47.861Z,6.22
2023-02-24T07:06:20.899Z,5.96
2023-02-24T07:08:48.107Z,6.03
2023-02-24T07:11:17.613Z,6.01
2023-02-24T07:13:44.778Z,5.96
2023-02-24T07:16:12.110Z,5.74
2023-02-24T07:18:41.606Z,5.82
2023-02-24T07:21:16.284Z,5.93
2023-02-24T07:23:44.307Z,5.87
2023-02-24T07:26:13.437Z,5.92
2023-02-24T07:28:40.666Z,5.95
2023-02-24T07:31:08.531Z,5.85
2023-02-24T07:33:45.270Z,5.86
2023-02-24T07:36:14.922Z,5.79
2023-02-24T07:38:42.275Z,5.79
2023-02-24T07:41:12.382Z,5.68
2023-02-24T07:43:39.799Z,5.13
2023-02-24T07:46:08.238Z,5.26
2023-02-24T07:48:36.467Z,5.52
2023-02-24T07:51:08.119Z,5.51
2023-02-24T07:53:35.585Z,5.08
2023-02-24T07:56:17.577Z,5.43
2023-02-24T07:58:44.611Z,5.22
2023-02-24T08:01:22.888Z,5.32
2023-02-24T08:03:52.058Z,5.60
2023-02-24T08:06:27.277Z,5.53
2023-02-24T08:09:10.099Z,5.81
2023-02-24T08:11:38.595Z,5.91
2023-02-24T08:14:11.077Z,5.74
2023-02-24T08:16:40.461Z,5.99
2023-02-24T08:19:08.036Z,6.21
2023-02-24T08:21:41.512Z,6.19
2023-02-24T08:24:25.389Z,6.07
2023-02-24T08:27:05.344Z,5.55
2023-02-24T08:29:58.119Z,5.20
2023-02-24T08:32:33.826Z,4.54
2023-02-24T08:35:03.611Z,4.62
2023-02-24T08:37:47.152Z,4.56
2023-02-24T08:40:32.896Z,4.21
2023-02-24T08:43:16.589Z,3.61
2023-02-24T08:45:50.917Z,3.74
2023-02-24T08:48:26.540Z,3.43
2023-02-24T08:50:54.617Z,3.76
2023-02-24T08:53:21.722Z,3.52
2023-02-24T08:55:51.892Z,3.22
2023-02-24T08:58:19.316Z,3.17
2023-02-24T09:00:53.549Z,3.57
2023-02-24T09:03:28.168Z,3.58
2023-02-24T09:06:05.058Z,3.83
2023-02-24T09:08:33.036Z,3.39
2023-02-24T09:11:01.195Z,3.51
2023-02-24T09:13:33.068Z,3.54
2023-02-24T09:16:04.246Z,3.50
2023-02-24T09:18:31.048Z,4.14
2023-02-24T09:21:15.958Z,3.96
2023-02-24T09:23:48.701Z,4.29
2023-02-24T09:26:15.325Z,3.98
2023-02-24T09:28:55.785Z,4.05
2023-02-24T09:31:24.766Z,4.44
2023-02-24T09:33:51.677Z,4.44
2023-02-24T09:36:27.904Z,4.97
2023-02-24T09:39:02.048Z,5.08
2023-02-24T09:42:18.136Z,5.32
2023-02-24T09:44:52.700Z,4.66
2023-02-24T09:47:56.912Z,4.46
2023-02-24T09:50:47.286Z,4.42
2023-02-24T09:53:20.041Z,4.40
2023-02-24T09:56:03.950Z,4.30
2023-02-24T09:58:50.354Z,4.35
2023-02-24T10:01:33.925Z,4.52
2023-02-24T10:04:19.561Z,4.34
2023-02-24T10:07:13.016Z,4.42
2023-02-24T10:09:42.714Z,4.84
2023-02-24T10:12:32.053Z,5.20
2023-02-24T10:15:32.342Z,4.37
2023-02-24T10:18:04.162Z,4.23
2023-02-24T10:20:39.826Z,4.80
2023-02-24T10:23:35.127Z,4.33
2023-02-24T10:26:31.918Z,4.21
2023-02-24T10:29:30.394Z,4.08
2023-02-24T10:32:31.679Z,3.92
2023-02-24T10:34:58.340Z,4.09
2023-02-24T10:37:29.096Z,4.31
2023-02-24T10:39:57.977Z,4.37
2023-02-24T10:42:31.748Z,4.42
2023-02-24T10:45:17.208Z,4.62
2023-02-24T10:47:50.014Z,4.69
2023-02-24T10:50:34.765Z,4.59
2023-02-24T10:53:26.221Z,4.26
2023-02-24T10:56:14.713Z,4.48
2023-02-24T10:58:53.545Z,4.37
2023-02-24T11:01:40.677Z,4.36
2023-02-24T11:04:33.096Z,4.40
2023-02-24T11:07:09.661Z,4.83
2023-02-24T11:09:44.051Z,4.80
2023-02-24T11:12:34.733Z,4.83
2023-02-24T11:15:25.174Z,4.55
2023-02-24T11:17:58.428Z,4.80
2023-02-24T11:20:48.455Z,4.92
2023-02-24T11:23:28.178Z,4.99
2023-02-24T11:25:59.247Z,4.99
2023-02-24T11:28:44.653Z,5.18
2023-02-24T11:31:37.616Z,5.17
2023-02-24T11:34:30.195Z,5.40
2023-02-24T11:37:21.265Z,6.08
2023-02-24T11:39:55.364Z,6.80
2023-02-24T11:42:47.000Z,6.23
2023-02-24T11:45:27.590Z,6.04
2023-02-24T11:47:57.882Z,6.32
2023-02-24T11:50:49.427Z,6.38
2023-02-24T11:53:30.358Z,6.07
2023-02-24T11:56:22.157Z,5.79
2023-02-24T11:59:31.194Z,5.89
2023-02-24T12:02:31.338Z,5.41
2023-02-24T12:05:06.920Z,5.56
2023-02-24T12:07:37.616Z,5.60
2023-02-24T12:10:28.112Z,5.74
2023-02-24T12:13:14.014Z,5.27
2023-02-24T12:15:56.331Z,5.76
2023-02-24T12:18:36.268Z,5.91
2023-02-24T12:21:07.883Z,5.68
2023-02-24T12:23:35.835Z,5.65
2023-02-24T12:26:21.583Z,5.79
2023-02-24T12:29:16.282Z,5.92
2023-02-24T12:31:50.823Z,6.08
2023-02-24T12:34:40.145Z,6.48
2023-02-24T12:37:28.270Z,6.30
2023-02-24T12:40:26.439Z,6.42
2023-02-24T12:43:02.282Z,6.60
2023-02-24T12:45:45.964Z,6.14
2023-02-24T12:48:28.817Z,6.26
2023-02-24T12:51:01.335Z,5.98
2023-02-24T12:53:37.267Z,6.05
2023-02-24T12:56:15.878Z,6.21
2023-02-24T12:58:44.572Z,6.22
2023-02-24T13:01:35.046Z,6.10
2023-02-24T13:04:26.465Z,6.12
2023-02-24T13:07:07.922Z,6.13
2023-02-24T13:10:08.781Z,6.30
2023-02-24T13:12:38.306Z,6.24
2023-02-24T13:15:06.281Z,6.03
2023-02-24T13:17:32.998Z,6.19
2023-02-24T13:20:09.890Z,6.14
2023-02-24T13:22:42.067Z,6.22
2023-02-24T13:25:08.543Z,6.18
2023-02-24T13:27:59.967Z,6.27
2023-02-24T13:30:32.101Z,6.23
2023-02-24T13:33:23.553Z,6.27
2023-02-24T13:36:04.716Z,6.34
2023-02-24T13:38:31.256Z,6.31
2023-02-24T13:41:09.865Z,6.31
2023-02-24T13:43:36.523Z,6.41
2023-02-24T13:46:04.511Z,6.40
2023-02-24T13:49:09.567Z,6.49
2023-02-24T13:51:36.242Z,6.61
2023-02-24T13:54:42.111Z,6.68
2023-02-24T13:57:44.755Z,6.58
2023-02-24T14:00:36.846Z,6.48
2023-02-24T14:03:15.297Z,6.36
2023-02-24T14:05:43.590Z,6.35
2023-02-24T14:08:24.932Z,6.40
2023-02-24T14:15:04.200Z,6.20
2023-02-24T14:17:33.551Z,6.18
2023-02-24T14:20:18.402Z,6.06
2023-02-24T14:22:49.177Z,6.21
2023-02-24T14:25:16.199Z,6.12
2023-02-24T14:27:47.400Z,6.03
2023-02-24T14:30:22.749Z,5.92
2023-02-24T14:32:49.484Z,5.98
2023-02-24T14:35:40.357Z,5.98
2023-02-24T14:38:07.058Z,6.07
2023-02-24T14:40:33.879Z,6.06
2023-02-24T14:43:00.592Z,5.92
2023-02-24T14:45:28.284Z,5.95
2023-02-24T14:47:55.826Z,5.93
2023-02-24T14:50:32.182Z,5.86
2023-02-24T14:53:05.079Z,5.94
2023-02-24T14:55:35.258Z,5.89
2023-02-24T14:58:07.104Z,5.79
2023-02-24T15:00:36.366Z,5.95
2023-02-24T15:03:26.397Z,5.92
2023-02-24T15:05:54.302Z,6.08
2023-02-24T15:08:42.984Z,5.95
2023-02-24T15:11:21.329Z,6.00
2023-02-24T15:14:06.219Z,6.22
2023-02-24T15:16:37.041Z,6.20
2023-02-24T15:19:03.862Z,6.00
2023-02-24T15:21:38.675Z,5.96
2023-02-24T15:24:29.063Z,6.11
2023-02-24T15:27:20.686Z,5.97
2023-02-24T15:30:02.118Z,5.97
2023-02-24T15:32:30.856Z,5.79
2023-02-24T15:34:57.675Z,5.80
2023-02-24T15:37:29.825Z,5.87
2023-02-24T15:40:11.758Z,5.83
2023-02-24T15:42:38.442Z,5.86
2023-02-24T15:45:06.505Z,5.80
2023-02-24T15:47:44.320Z,5.78
2023-02-24T15:50:12.281Z,5.93
2023-02-24T15:52:39.086Z,6.03
2023-02-24T15:55:06.394Z,5.96
2023-02-24T15:57:33.100Z,6.05
2023-02-24T15:59:59.816Z,6.21
2023-02-24T16:02:27.574Z,5.84
2023-02-24T16:04:54.249Z,5.84
2023-02-24T16:07:25.056Z,5.48
2023-02-24T16:09:53.162Z,5.03
2023-02-24T16:12:33.697Z,4.83
2023-02-24T16:15:04.259Z,4.80
2023-02-24T16:17:34.224Z,4.72
2023-02-24T16:20:00.997Z,4.41
2023-02-24T16:22:27.748Z,4.29
2023-02-24T16:24:54.450Z,4.16
2023-02-24T16:27:22.316Z,4.09
2023-02-24T16:29:49.762Z,4.11
2023-02-24T16:32:16.570Z,4.21
2023-02-24T16:34:43.351Z,4.14
2023-02-24T16:37:20.925Z,4.06
2023-02-24T16:39:49.411Z,3.88
2023-02-24T16:42:16.986Z,3.96
2023-02-24T16:44:43.885Z,3.88
2023-02-24T16:47:13.782Z,3.83
2023-02-24T16:49:41.044Z,3.79
2023-02-24T16:52:08.557Z,3.77
2023-02-24T16:54:35.971Z,3.57
2023-02-24T16:57:02.574Z,3.55
2023-02-24T16:59:29.246Z,3.57
2023-02-24T17:01:55.879Z,3.51
2023-02-24T17:04:24.734Z,3.42
2023-02-24T17:06:51.437Z,3.38
2023-02-24T17:09:18.045Z,3.58
2023-02-24T17:11:44.972Z,3.37
2023-02-24T17:14:17.798Z,3.25
2023-02-24T17:16:44.902Z,3.23
2023-02-24T17:19:11.564Z,3.31
2023-02-24T17:21:40.507Z,3.53
2023-02-24T17:24:07.472Z,3.29
2023-02-24T17:26:34.122Z,3.46
2023-02-24T17:29:00.836Z,3.29
2023-02-24T17:31:31.887Z,3.13
2023-02-24T17:33:58.757Z,3.32
2023-02-24T17:36:25.400Z,3.26
2023-02-24T17:38:51.987Z,3.24
2023-02-24T17:41:18.592Z,3.26
2023-02-24T17:43:45.208Z,3.18
2023-02-24T17:46:11.919Z,3.25
2023-02-24T17:48:38.642Z,3.04
2023-02-24T17:51:05.452Z,2.97
2023-02-24T17:53:33.954Z,2.94
2023-02-24T17:56:03.230Z,3.02
2023-02-24T17:58:30.211Z,2.95
2023-02-24T18:00:56.983Z,2.78
2023-02-24T18:03:23.917Z,2.83
2023-02-24T18:05:58.546Z,2.74
2023-02-24T18:08:25.160Z,2.71
2023-02-24T18:10:51.809Z,2.72
2023-02-24T18:13:18.381Z,2.87
2023-02-24T18:15:45.022Z,2.82
2023-02-24T18:18:34.687Z,2.71
2023-02-24T18:21:02.437Z,2.76
2023-02-24T18:23:29.526Z,2.74
2023-02-24T18:25:56.137Z,2.65
2023-02-24T18:28:22.965Z,2.82
2023-02-24T18:30:49.710Z,2.75
2023-02-24T18:33:16.772Z,2.70
2023-02-24T18:35:43.563Z,2.65
2023-02-24T18:38:10.211Z,2.71
2023-02-24T18:40:37.063Z,2.57
2023-02-24T18:43:04.354Z,2.52
2023-02-24T18:45:31.039Z,2.52
2023-02-24T18:48:01.805Z,2.50
2023-02-24T18:50:28.426Z,2.65
2023-02-24T18:52:55.011Z,2.56
2023-02-24T18:55:22.211Z,2.49
2023-02-24T18:57:48.901Z,2.56
2023-02-24T19:00:16.103Z,2.83
2023-02-24T19:02:43.035Z,2.81
2023-02-24T19:05:10.128Z,2.88
2023-02-24T19:07:36.728Z,2.84
2023-02-24T19:10:04.950Z,2.69
2023-02-24T19:12:31.617Z,2.49
2023-02-24T19:14:58.197Z,2.76
2023-02-24T19:17:24.857Z,2.87
2023-02-24T19:19:52.626Z,2.77
2023-02-24T19:22:19.227Z,2.78
2023-02-24T19:24:45.852Z,2.63
2023-02-24T19:27:12.611Z,2.79
2023-02-24T19:29:39.346Z,2.61
2023-02-24T19:32:06.074Z,2.56
2023-02-24T19:34:32.725Z,2.74
2023-02-24T19:36:59.373Z,2.48
2023-02-24T19:39:25.971Z,2.42
2023-02-24T19:41:53.432Z,2.49
2023-02-24T19:44:20.013Z,2.66
2023-02-24T19:46:46.704Z,2.70
2023-02-24T19:49:13.569Z,2.76
2023-02-24T19:51:40.190Z,2.55
2023-02-24T19:54:06.872Z,2.43
2023-02-24T19:56:34.958Z,2.51
2023-02-24T19:59:01.683Z,2.55
2023-02-24T20:01:28.580Z,2.54
2023-02-24T20:03:56.481Z,2.54
2023-02-24T20:06:30.366Z,2.58
2023-02-24T20:09:07.851Z,2.49
2023-02-24T20:11:36.254Z,2.49
2023-02-24T20:14:02.924Z,2.52
2023-02-24T20:16:32.653Z,2.58
2023-02-24T20:19:00.129Z,2.64
2023-02-24T20:21:26.847Z,2.64
2023-02-24T20:23:53.511Z,2.62
2023-02-24T20:26:20.309Z,2.62
2023-02-24T20:28:47.540Z,2.64
2023-02-24T20:31:15.986Z,2.60
2023-02-24T20:33:43.168Z,2.67
2023-02-24T20:36:11.006Z,2.64
2023-02-24T20:38:52.044Z,2.66
2023-02-24T20:41:19.032Z,2.69
2023-02-24T20:43:45.645Z,2.60
2023-02-24T20:46:16.939Z,2.54
2023-02-24T20:48:43.672Z,2.58
2023-02-24T20:51:10.403Z,2.52
2023-02-24T20:53:51.084Z,2.61
2023-02-24T20:56:23.485Z,2.58
2023-02-24T20:58:56.468Z,2.69
2023-02-24T21:01:23.363Z,2.53
2023-02-24T21:03:50.442Z,2.54
2023-02-24T21:06:17.216Z,2.69
2023-02-24T21:08:44.280Z,2.62
2023-02-24T21:11:11.257Z,2.57
2023-02-24T21:13:45.712Z,2.67
2023-02-24T21:16:12.645Z,2.58
2023-02-24T21:18:40.260Z,2.60
2023-02-24T21:21:07.362Z,2.52
2023-02-24T21:23:37.444Z,2.57
2023-02-24T21:26:04.437Z,2.59
2023-02-24T21:28:31.485Z,2.60
2023-02-24T21:30:58.127Z,2.54
2023-02-24T21:33:24.780Z,2.58
2023-02-24T21:35:58.363Z,2.57
2023-02-24T21:38:25.050Z,2.63
2023-02-24T21:40:51.770Z,2.58
2023-02-24T21:43:18.437Z,2.52
2023-02-24T21:45:47.862Z,2.50
2023-02-24T21:48:14.508Z,2.63
2023-02-24T21:50:41.112Z,2.61
2023-02-24T21:53:07.744Z,2.61
2023-02-24T21:55:35.918Z,2.51
2023-02-24T21:58:02.678Z,2.57
2023-02-24T22:00:30.248Z,2.61
2023-02-24T22:02:56.993Z,2.63
2023-02-24T22:05:24.691Z,2.66
2023-02-24T22:07:51.506Z,2.68
2023-02-24T22:10:20.038Z,2.79
2023-02-24T22:12:46.838Z,2.82
2023-02-24T22:15:13.623Z,2.79
2023-02-24T22:17:40.454Z,2.74
2023-02-24T22:20:09.072Z,2.74
2023-02-24T22:22:36.484Z,2.68
2023-02-24T22:25:03.825Z,2.72
2023-02-24T22:27:30.413Z,2.60
2023-02-24T22:29:57.129Z,2.61
2023-02-24T22:32:23.953Z,2.73
2023-02-24T22:34:50.702Z,2.60
2023-02-24T22:37:17.355Z,2.67
2023-02-24T22:39:43.990Z,2.67
2023-02-24T22:42:11.623Z,2.60
2023-02-24T22:44:38.228Z,2.58
2023-02-24T22:47:04.922Z,2.59
2023-02-24T22:49:31.554Z,2.52
2023-02-24T22:51:58.204Z,2.51
2023-02-24T22:54:24.870Z,2.59
2023-02-24T22:56:51.482Z,2.42
2023-02-24T22:59:18.080Z,2.36
2023-02-24T23:01:44.640Z,2.42
2023-02-24T23:04:14.175Z,2.31
2023-02-24T23:06:41.616Z,2.20
2023-02-24T23:09:08.976Z,2.21
2023-02-24T23:11:44.589Z,2.19
2023-02-24T23:14:13.816Z,2.16
2023-02-24T23:16:42.507Z,2.12
2023-02-24T23:19:16.190Z,2.09
2023-02-24T23:21:45.253Z,2.11
2023-02-24T23:24:12.616Z,2.02
2023-02-24T23:26:51.388Z,1.98
2023-02-24T23:29:18.092Z,1.96
2023-02-24T23:31:44.772Z,1.88
2023-02-24T23:34:11.968Z,1.78
2023-02-24T23:36:39.911Z,1.79
2023-02-24T23:39:06.895Z,1.80
2023-02-24T23:41:34.009Z,1.81
2023-02-24T23:44:00.619Z,1.77
2023-02-24T23:46:27.220Z,1.87
2023-02-24T23:48:53.989Z,1.87
2023-02-24T23:51:20.812Z,1.91
2023-02-24T23:53:48.412Z,2.00
2023-02-24T23:56:17.940Z,1.98
2023-02-24T23:58:44.583Z,2.09
